createdAt,value
2022-09-04T00:02:38.414Z,20.00
2022-09-04T00:05:20.276Z,20.00
2022-09-04T00:08:05.299Z,19.90
2022-09-04T00:10:41.792Z,19.90
2022-09-04T00:13:14.047Z,19.80
2022-09-04T00:15:46.872Z,19.80
2022-09-04T00:18:27.123Z,19.80
2022-09-04T00:20:59.856Z,19.80
2022-09-04T00:23:37.337Z,19.80
2022-09-04T00:26:14.230Z,19.70
2022-09-04T00:28:46.745Z,19.70
2022-09-04T00:31:26.981Z,19.70
2022-09-04T00:34:07.796Z,19.70
2022-09-04T00:36:39.172Z,19.80
2022-09-04T00:39:14.131Z,19.70
2022-09-04T00:41:54.210Z,19.70
2022-09-04T00:44:43.419Z,19.70
2022-09-04T00:47:35.583Z,19.70
2022-09-04T00:50:21.411Z,19.70
2022-09-04T00:53:40.496Z,19.70
2022-09-04T00:56:33.719Z,19.70
2022-09-04T00:59:12.849Z,19.60
2022-09-04T01:01:42.426Z,19.60
2022-09-04T01:04:32.225Z,19.60
2022-09-04T01:07:23.519Z,19.60
2022-09-04T01:10:19.544Z,19.50
2022-09-04T01:12:56.450Z,19.50
2022-09-04T01:15:36.029Z,19.50
2022-09-04T01:18:10.774Z,19.50
2022-09-04T01:21:07.712Z,19.50
2022-09-04T01:23:57.835Z,19.50
2022-09-04T01:26:37.592Z,19.50
2022-09-04T01:29:17.626Z,19.50
2022-09-04T01:31:52.005Z,19.40
2022-09-04T01:34:41.259Z,19.40
2022-09-04T01:37:32.018Z,19.40
2022-09-04T01:40:13.941Z,19.40
2022-09-04T01:42:48.834Z,19.40
2022-09-04T01:45:26.708Z,19.40
2022-09-04T01:48:01.447Z,19.40
2022-09-04T01:50:33.045Z,19.30
2022-09-04T01:53:07.844Z,19.30
2022-09-04T01:55:46.337Z,19.30
2022-09-04T01:58:24.127Z,19.30
2022-09-04T02:01:01.186Z,19.30
2022-09-04T02:03:40.321Z,19.20
2022-09-04T02:06:17.215Z,19.20
2022-09-04T02:08:57.940Z,19.20
2022-09-04T02:11:29.875Z,19.20
2022-09-04T02:14:17.901Z,19.10
2022-09-04T02:16:57.882Z,19.10
2022-09-04T02:23:17.528Z,19.10
2022-09-04T02:25:52.081Z,19.10
2022-09-04T02:28:31.378Z,19.10
2022-09-04T02:31:10.068Z,19.10
2022-09-04T02:33:43.668Z,19.10
2022-09-04T02:36:20.794Z,19.10
2022-09-04T02:38:57.529Z,19.10
2022-09-04T02:41:34.649Z,19.10
2022-09-04T02:44:19.190Z,19.10
2022-09-04T02:47:01.649Z,19.10
2022-09-04T02:49:39.644Z,19.00
2022-09-04T02:52:21.955Z,19.00
2022-09-04T02:55:05.458Z,19.00
2022-09-04T02:57:43.615Z,19.00
2022-09-04T03:00:18.191Z,19.00
2022-09-04T03:02:54.025Z,19.00
2022-09-04T03:05:26.278Z,19.00
2022-09-04T03:08:02.884Z,19.00
2022-09-04T03:10:35.961Z,19.00
2022-09-04T03:13:12.092Z,19.00
2022-09-04T03:15:46.376Z,19.00
2022-09-04T03:18:23.539Z,19.00
2022-09-04T03:20:56.594Z,19.00
2022-09-04T03:23:34.532Z,19.00
2022-09-04T03:26:18.317Z,19.00
2022-09-04T03:29:01.516Z,19.00
2022-09-04T03:31:35.393Z,19.00
2022-09-04T03:34:21.567Z,19.00
2022-09-04T03:37:00.532Z,18.90
2022-09-04T03:39:39.659Z,19.00
2022-09-04T03:42:15.288Z,18.90
2022-09-04T03:44:53.843Z,19.00
2022-09-04T03:47:31.688Z,18.90
2022-09-04T03:50:12.302Z,18.90
2022-09-04T03:52:56.440Z,18.90
2022-09-04T03:55:41.604Z,18.90
2022-09-04T03:58:18.342Z,18.90
2022-09-04T04:00:57.317Z,18.90
2022-09-04T04:03:48.850Z,18.80
2022-09-04T04:06:28.361Z,18.80
2022-09-04T04:09:41.620Z,18.80
2022-09-04T04:12:30.217Z,18.80
2022-09-04T04:15:14.455Z,18.80
2022-09-04T04:17:59.808Z,18.80
2022-09-04T04:20:42.259Z,18.80
2022-09-04T04:23:29.941Z,18.80
2022-09-04T04:26:10.074Z,18.70
2022-09-04T04:29:00.359Z,18.80
2022-09-04T04:31:46.808Z,18.80
2022-09-04T04:34:25.971Z,18.70
2022-09-04T04:37:01.818Z,18.70
2022-09-04T04:39:37.144Z,18.70
2022-09-04T04:42:21.344Z,18.70
2022-09-04T04:45:28.960Z,18.70
2022-09-04T04:48:21.690Z,18.70
2022-09-04T04:50:59.946Z,18.70
2022-09-04T04:53:34.127Z,18.70
2022-09-04T04:56:15.531Z,18.70
2022-09-04T04:58:59.839Z,18.70
2022-09-04T05:01:42.560Z,18.70
2022-09-04T05:04:19.247Z,18.60
2022-09-04T05:06:54.014Z,18.60
2022-09-04T05:09:33.901Z,18.60
2022-09-04T05:12:12.204Z,18.60
2022-09-04T05:14:50.218Z,18.60
2022-09-04T05:17:28.360Z,18.50
2022-09-04T05:20:22.157Z,18.50
2022-09-04T05:22:58.415Z,18.50
2022-09-04T05:25:37.031Z,18.50
2022-09-04T05:28:20.525Z,18.50
2022-09-04T05:30:54.198Z,18.50
2022-09-04T05:33:43.179Z,18.50
2022-09-04T05:36:19.601Z,18.50
2022-09-04T05:38:58.112Z,18.50
2022-09-04T05:41:41.274Z,18.50
2022-09-04T05:44:29.739Z,18.50
2022-09-04T05:47:11.265Z,18.50
2022-09-04T05:49:56.742Z,18.50
2022-09-04T05:52:43.905Z,18.50
2022-09-04T05:55:32.320Z,18.50
2022-09-04T05:58:26.209Z,18.60
2022-09-04T06:01:06.345Z,18.60
2022-09-04T06:04:19.590Z,18.60
2022-09-04T06:06:58.019Z,18.60
2022-09-04T06:09:40.676Z,18.60
2022-09-04T06:12:24.786Z,18.70
2022-09-04T06:15:17.214Z,18.60
2022-09-04T06:18:08.163Z,18.60
2022-09-04T06:20:47.513Z,18.70
2022-09-04T06:23:27.493Z,18.70
2022-09-04T06:26:26.136Z,18.70
2022-09-04T06:29:25.883Z,18.80
2022-09-04T06:32:08.825Z,18.80
2022-09-04T06:34:59.792Z,18.80
2022-09-04T06:37:38.391Z,18.80
2022-09-04T06:40:22.552Z,18.90
2022-09-04T06:43:05.298Z,18.90
2022-09-04T06:45:44.864Z,18.90
2022-09-04T06:48:22.970Z,18.90
2022-09-04T06:51:03.971Z,19.00
2022-09-04T06:53:42.654Z,19.00
2022-09-04T06:56:42.094Z,19.10
2022-09-04T06:59:41.666Z,19.10
2022-09-04T07:02:24.766Z,19.20
2022-09-04T07:05:10.366Z,19.20
2022-09-04T07:07:45.582Z,19.30
2022-09-04T07:10:17.723Z,19.40
2022-09-04T07:13:13.944Z,19.40
2022-09-04T07:15:57.434Z,19.50
2022-09-04T07:18:49.734Z,19.70
2022-09-04T07:21:27.793Z,19.70
2022-09-04T07:24:07.306Z,19.80
2022-09-04T07:26:40.777Z,19.90
2022-09-04T07:29:30.812Z,20.00
2022-09-04T07:32:04.428Z,20.10
2022-09-04T07:34:42.081Z,20.20
2022-09-04T07:37:25.113Z,20.30
2022-09-04T07:40:04.444Z,20.40
2022-09-04T07:42:43.439Z,20.40
2022-09-04T07:45:23.162Z,20.50
2022-09-04T07:48:01.546Z,20.60
2022-09-04T07:50:36.434Z,20.60
2022-09-04T07:53:24.167Z,20.70
2022-09-04T07:55:59.315Z,20.80
2022-09-04T07:58:55.494Z,20.90
2022-09-04T08:01:56.352Z,20.90
2022-09-04T08:05:05.905Z,21.00
2022-09-04T08:08:07.613Z,21.00
2022-09-04T08:10:43.278Z,21.10
2022-09-04T08:13:28.852Z,21.10
2022-09-04T08:16:07.554Z,21.20
2022-09-04T08:19:07.155Z,21.20
2022-09-04T08:21:39.511Z,21.20
2022-09-04T08:24:45.749Z,21.30
2022-09-04T08:27:29.985Z,21.30
2022-09-04T08:30:05.426Z,21.30
2022-09-04T08:33:11.427Z,21.40
2022-09-04T08:35:48.968Z,21.40
2022-09-04T08:38:32.834Z,21.50
2022-09-04T08:41:40.019Z,21.50
2022-09-04T08:44:33.315Z,21.50
2022-09-04T08:47:36.312Z,21.60
2022-09-04T08:50:25.734Z,21.60
2022-09-04T08:53:56.304Z,21.60
2022-09-04T08:56:31.191Z,21.70
2022-09-04T08:59:53.905Z,21.70
2022-09-04T09:02:52.328Z,21.70
2022-09-04T09:05:56.194Z,21.70
2022-09-04T09:08:45.631Z,21.80
2022-09-04T09:11:33.273Z,21.80
2022-09-04T09:14:24.022Z,21.80
2022-09-04T09:17:03.180Z,21.90
2022-09-04T09:19:47.611Z,21.90
2022-09-04T09:22:36.117Z,21.90
2022-09-04T09:25:21.011Z,22.00
2022-09-04T09:28:33.426Z,22.00
2022-09-04T09:31:27.431Z,22.10
2022-09-04T09:34:25.642Z,22.10
2022-09-04T09:37:28.589Z,22.20
2022-09-04T09:40:24.443Z,22.20
2022-09-04T09:43:27.619Z,22.20
2022-09-04T09:46:34.491Z,22.30
2022-09-04T09:49:34.292Z,22.40
2022-09-04T09:52:24.364Z,22.40
2022-09-04T09:55:32.830Z,22.50
2022-09-04T09:58:32.098Z,22.50
2022-09-04T10:01:20.075Z,22.60
2022-09-04T10:04:17.901Z,22.70
2022-09-04T10:07:23.849Z,22.80
2022-09-04T10:10:31.305Z,22.90
2022-09-04T10:13:20.964Z,23.00
2022-09-04T10:16:27.785Z,23.00
2022-09-04T10:19:31.449Z,23.10
2022-09-04T10:22:24.718Z,23.20
2022-09-04T10:25:43.103Z,23.30
2022-09-04T10:28:47.914Z,23.30
2022-09-04T10:31:39.674Z,23.40
2022-09-04T10:34:24.731Z,23.50
2022-09-04T10:37:09.220Z,23.50
2022-09-04T10:40:10.742Z,23.60
2022-09-04T10:42:49.900Z,23.70
2022-09-04T10:45:27.741Z,23.80
2022-09-04T10:48:36.131Z,23.90
2022-09-04T10:51:28.062Z,23.90
2022-09-04T10:54:26.615Z,24.00
2022-09-04T10:57:09.220Z,24.00
2022-09-04T10:59:58.845Z,24.10
2022-09-04T11:02:57.937Z,24.20
2022-09-04T11:05:53.190Z,24.40
2022-09-04T11:08:53.932Z,24.50
2022-09-04T11:11:50.438Z,24.70
2022-09-04T11:14:43.448Z,24.80
2022-09-04T11:17:42.175Z,25.00
2022-09-04T11:20:46.555Z,25.10
2022-09-04T11:23:51.950Z,25.30
2022-09-04T11:26:55.154Z,25.50
2022-09-04T11:29:41.284Z,25.60
2022-09-04T11:32:42.166Z,25.80
2022-09-04T11:35:58.433Z,25.90
2022-09-04T11:38:58.486Z,26.00
2022-09-04T11:42:08.446Z,26.00
2022-09-04T11:44:52.868Z,26.10
2022-09-04T11:47:40.554Z,26.20
2022-09-04T11:50:24.869Z,26.30
2022-09-04T11:53:23.213Z,26.40
2022-09-04T11:56:17.525Z,26.50
2022-09-04T11:59:00.351Z,26.60
2022-09-04T12:01:47.957Z,26.70
2022-09-04T12:04:35.174Z,26.90
2022-09-04T12:07:20.088Z,27.10
2022-09-04T12:10:18.063Z,27.20
2022-09-04T12:13:16.012Z,27.30
2022-09-04T12:16:11.379Z,27.50
2022-09-04T12:19:26.800Z,27.70
2022-09-04T12:22:31.771Z,27.80
2022-09-04T12:25:29.968Z,28.00
2022-09-04T12:28:39.478Z,28.20
2022-09-04T12:31:28.021Z,28.40
2022-09-04T12:34:13.360Z,28.50
2022-09-04T12:37:11.896Z,28.70
2022-09-04T12:40:18.563Z,28.80
2022-09-04T12:42:57.868Z,29.00
2022-09-04T12:45:33.565Z,29.10
2022-09-04T12:48:09.677Z,29.20
2022-09-04T12:50:45.455Z,29.40
2022-09-04T12:53:33.796Z,29.50
2022-09-04T12:56:11.948Z,29.70
2022-09-04T12:59:16.110Z,29.80
2022-09-04T13:01:57.517Z,30.00
2022-09-04T13:04:34.594Z,30.10
2022-09-04T13:07:24.565Z,30.30
2022-09-04T13:10:04.435Z,30.40
2022-09-04T13:12:45.402Z,30.60
2022-09-04T13:15:31.739Z,30.70
2022-09-04T13:18:14.298Z,30.90
2022-09-04T13:20:51.515Z,31.00
2022-09-04T13:23:50.631Z,31.10
2022-09-04T13:26:33.553Z,31.20
2022-09-04T13:29:17.689Z,31.30
2022-09-04T13:32:05.855Z,31.30
2022-09-04T13:34:48.919Z,31.40
2022-09-04T13:37:23.862Z,31.40
2022-09-04T13:40:25.117Z,31.50
2022-09-04T13:43:26.082Z,31.50
2022-09-04T13:45:59.208Z,31.60
2022-09-04T13:48:38.029Z,31.80
2022-09-04T13:51:13.405Z,31.80
2022-09-04T13:54:03.171Z,31.90
2022-09-04T13:56:35.568Z,31.90
2022-09-04T13:59:09.682Z,32.00
2022-09-04T14:01:46.507Z,32.00
2022-09-04T14:04:19.441Z,32.00
2022-09-04T14:06:49.664Z,32.20
2022-09-04T14:09:18.872Z,32.20
2022-09-04T14:12:13.795Z,32.30
2022-09-04T14:15:10.987Z,32.30
2022-09-04T14:17:51.061Z,32.30
2022-09-04T14:20:24.925Z,32.20
2022-09-04T14:23:04.334Z,32.10
2022-09-04T14:25:39.383Z,31.90
2022-09-04T14:28:17.165Z,31.80
2022-09-04T14:30:58.566Z,31.80
2022-09-04T14:33:37.585Z,31.80
2022-09-04T14:36:22.976Z,31.80
2022-09-04T14:39:02.777Z,31.80
2022-09-04T14:41:43.466Z,31.70
2022-09-04T14:44:22.159Z,31.70
2022-09-04T14:47:03.796Z,31.70
2022-09-04T14:49:34.578Z,31.70
2022-09-04T14:52:11.177Z,31.90
2022-09-04T14:54:43.930Z,32.00
2022-09-04T14:57:20.169Z,32.20
2022-09-04T14:59:58.135Z,32.30
2022-09-04T15:02:34.477Z,32.40
2022-09-04T15:05:16.532Z,32.50
2022-09-04T15:08:00.799Z,32.60
2022-09-04T15:10:36.284Z,32.70
2022-09-04T15:13:39.001Z,32.70
2022-09-04T15:16:18.407Z,32.80
2022-09-04T15:19:07.272Z,32.80
2022-09-04T15:21:46.637Z,32.90
2022-09-04T15:24:25.761Z,32.90
2022-09-04T15:27:01.535Z,33.00
2022-09-04T15:29:37.570Z,33.10
2022-09-04T15:32:14.008Z,33.20
2022-09-04T15:34:42.990Z,33.20
2022-09-04T15:37:20.155Z,33.20
2022-09-04T15:39:59.218Z,33.20
2022-09-04T15:42:40.229Z,33.30
2022-09-04T15:45:16.817Z,33.40
2022-09-04T15:48:03.303Z,33.40
2022-09-04T15:50:35.984Z,33.50
2022-09-04T15:53:16.954Z,33.60
2022-09-04T15:55:47.441Z,33.60
2022-09-04T15:58:21.837Z,33.50
2022-09-04T16:01:13.377Z,33.50
2022-09-04T16:04:00.223Z,33.40
2022-09-04T16:06:32.723Z,33.20
2022-09-04T16:09:07.157Z,33.00
2022-09-04T16:11:38.557Z,32.90
2022-09-04T16:14:10.221Z,32.60
2022-09-04T16:16:44.637Z,32.50
2022-09-04T16:19:26.595Z,32.30
2022-09-04T16:22:05.532Z,32.20
2022-09-04T16:24:41.926Z,32.00
2022-09-04T16:27:14.939Z,31.90
2022-09-04T16:29:48.218Z,31.80
2022-09-04T16:32:23.331Z,31.60
2022-09-04T16:34:55.637Z,31.50
2022-09-04T16:37:30.934Z,31.30
2022-09-04T16:40:16.270Z,31.10
2022-09-04T16:42:51.209Z,30.90
2022-09-04T16:45:24.785Z,30.80
2022-09-04T16:48:00.581Z,30.70
2022-09-04T16:50:55.370Z,30.50
2022-09-04T16:53:37.423Z,30.30
2022-09-04T16:56:16.327Z,30.20
2022-09-04T16:58:54.969Z,30.10
2022-09-04T17:01:30.007Z,29.90
2022-09-04T17:04:24.899Z,29.80
2022-09-04T17:07:03.533Z,29.60
2022-09-04T17:09:45.513Z,29.50
2022-09-04T17:12:49.672Z,29.40
2022-09-04T17:15:27.383Z,29.30
2022-09-04T17:17:56.406Z,29.20
2022-09-04T17:21:00.278Z,29.10
2022-09-04T17:29:00.320Z,28.90
2022-09-04T17:29:13.396Z,28.80
2022-09-04T17:29:34.473Z,28.70
2022-09-04T17:32:36.864Z,28.60
2022-09-04T17:40:39.499Z,28.40
2022-09-04T17:40:54.442Z,28.30
2022-09-04T17:41:40.236Z,28.20
2022-09-04T17:44:03.534Z,28.10
2022-09-04T17:46:40.329Z,27.90
2022-09-04T17:49:17.620Z,27.90
2022-09-04T17:51:52.322Z,27.80
2022-09-04T17:54:28.781Z,27.70
2022-09-04T17:57:03.189Z,27.60
2022-09-04T17:59:40.515Z,27.50
2022-09-04T18:02:19.946Z,27.40
2022-09-04T18:04:53.634Z,27.40
2022-09-04T18:08:07.492Z,27.30
2022-09-04T18:10:28.420Z,27.20
2022-09-04T18:13:06.451Z,27.10
2022-09-04T18:15:39.466Z,27.00
2022-09-04T18:18:14.720Z,26.90
2022-09-04T18:20:51.890Z,26.80
2022-09-04T18:23:52.429Z,26.70
2022-09-04T18:26:38.499Z,26.60
2022-09-04T18:33:55.676Z,26.60
2022-09-04T18:37:11.912Z,26.60
2022-09-04T18:37:18.211Z,26.50
2022-09-04T18:38:28.159Z,26.50
2022-09-04T18:44:44.573Z,26.40
2022-09-04T18:50:31.589Z,26.30
2022-09-04T18:50:33.994Z,26.20
2022-09-04T18:50:45.518Z,26.30
2022-09-04T18:52:30.229Z,26.20
2022-09-04T18:55:03.243Z,26.10
2022-09-04T18:57:36.294Z,26.10
2022-09-04T19:00:10.901Z,26.00
2022-09-04T19:02:53.081Z,26.00
2022-09-04T19:05:24.533Z,25.90
2022-09-04T19:07:58.469Z,25.90
2022-09-04T19:10:29.292Z,25.80
2022-09-04T19:13:05.415Z,25.80
2022-09-04T19:15:50.790Z,25.70
2022-09-04T19:18:27.247Z,25.70
2022-09-04T19:21:14.665Z,25.70
2022-09-04T19:23:50.170Z,25.70
2022-09-04T19:26:24.383Z,25.60
2022-09-04T19:28:57.652Z,25.60
2022-09-04T19:31:32.048Z,25.50
2022-09-04T19:34:08.893Z,25.50
2022-09-04T19:36:44.246Z,25.40
2022-09-04T19:45:39.633Z,25.40
2022-09-04T19:46:00.354Z,25.40
2022-09-04T19:46:15.284Z,25.30
2022-09-04T19:48:28.901Z,25.30
2022-09-04T19:53:31.294Z,25.30
2022-09-04T19:53:58.740Z,25.30
2022-09-04T19:56:51.828Z,25.20
2022-09-04T19:59:27.534Z,25.20
2022-09-04T20:01:58.121Z,25.10
2022-09-04T20:04:37.264Z,25.10
2022-09-04T20:07:13.844Z,25.10
2022-09-04T20:09:47.554Z,25.00
2022-09-04T20:12:22.136Z,24.90
2022-09-04T20:14:55.255Z,24.90
2022-09-04T20:17:55.605Z,24.90
2022-09-04T20:20:26.543Z,24.90
2022-09-04T20:22:59.179Z,24.80
2022-09-04T20:25:33.365Z,24.80
2022-09-04T20:28:21.703Z,24.80
2022-09-04T20:31:05.139Z,24.70
2022-09-04T20:33:59.693Z,24.70
2022-09-04T20:36:33.641Z,24.60
2022-09-04T20:39:08.594Z,24.60
2022-09-04T20:41:49.848Z,24.50
2022-09-04T20:44:26.535Z,24.50
2022-09-04T20:52:46.368Z,24.40
2022-09-04T20:52:59.315Z,24.40
2022-09-04T20:53:12.031Z,24.40
2022-09-04T20:55:51.870Z,24.30
2022-09-04T21:03:05.536Z,24.30
2022-09-04T21:03:21.497Z,24.30
2022-09-04T21:04:41.986Z,24.20
2022-09-04T21:07:23.162Z,24.20
2022-09-04T21:10:05.893Z,24.20
2022-09-04T21:12:41.993Z,24.20
2022-09-04T21:15:16.556Z,24.10
2022-09-04T21:18:14.372Z,24.10
2022-09-04T21:21:24.741Z,24.10
2022-09-04T21:24:18.115Z,24.10
2022-09-04T21:27:15.604Z,24.00
2022-09-04T21:29:59.446Z,24.00
2022-09-04T21:32:44.234Z,24.00
2022-09-04T21:35:21.297Z,24.00
2022-09-04T21:37:59.109Z,23.90
2022-09-04T21:41:14.566Z,23.90
2022-09-04T21:44:12.479Z,23.90
2022-09-04T21:47:08.512Z,23.80
2022-09-04T21:50:23.814Z,23.80
2022-09-04T21:53:21.017Z,23.80
2022-09-04T22:00:56.283Z,23.60
2022-09-04T22:02:40.982Z,23.70
2022-09-04T22:02:52.798Z,23.70
2022-09-04T22:05:22.854Z,23.60
2022-09-04T22:11:56.885Z,23.60
2022-09-04T22:13:43.202Z,23.50
2022-09-04T22:14:03.343Z,23.50
2022-09-04T22:16:51.592Z,23.50
2022-09-04T22:20:00.535Z,23.40
2022-09-04T22:22:46.714Z,23.40
2022-09-04T22:25:36.051Z,23.40
2022-09-04T22:28:38.953Z,23.30
2022-09-04T22:31:57.918Z,23.30
2022-09-04T22:35:04.635Z,23.30
2022-09-04T22:38:06.679Z,23.30
2022-09-04T22:40:56.462Z,23.20
2022-09-04T22:43:29.279Z,23.20
2022-09-04T22:46:39.827Z,23.20
2022-09-04T22:49:36.803Z,23.20
2022-09-04T22:52:43.877Z,23.20
2022-09-04T22:55:40.155Z,23.10
2022-09-04T22:58:24.068Z,23.10
2022-09-04T23:01:15.260Z,23.10
2022-09-04T23:03:56.446Z,23.10
2022-09-04T23:10:03.396Z,23.10
2022-09-04T23:13:43.182Z,23.10
2022-09-04T23:14:05.380Z,23.10
2022-09-04T23:16:54.859Z,23.10
2022-09-04T23:26:38.978Z,23.00
2022-09-04T23:26:43.774Z,22.90
2022-09-04T23:26:46.031Z,23.00
2022-09-04T23:29:20.769Z,22.90
2022-09-04T23:32:10.162Z,22.80
2022-09-04T23:35:14.521Z,22.80
2022-09-04T23:38:09.610Z,22.70
2022-09-04T23:40:44.487Z,22.70
2022-09-04T23:44:12.562Z,22.60
2022-09-04T23:47:01.718Z,22.50
2022-09-04T23:49:58.215Z,22.50
2022-09-04T23:52:48.824Z,22.40
2022-09-04T23:55:41.458Z,22.30
2022-09-04T23:58:58.052Z,22.30
